createdAt,value
2023-03-13T00:01:43.797Z,46.40
2023-03-13T00:04:11.842Z,50.42
2023-03-13T00:06:40.747Z,52.45
2023-03-13T00:09:12.148Z,48.72
2023-03-13T00:11:40.279Z,46.10
2023-03-13T00:14:09.080Z,49.40
2023-03-13T00:16:37.862Z,49.53
2023-03-13T00:19:07.007Z,51.38
2023-03-13T00:21:37.519Z,49.22
2023-03-13T00:24:05.674Z,48.17
2023-03-13T00:26:35.006Z,54.13
2023-03-13T00:29:02.974Z,58.28
2023-03-13T00:31:32.726Z,64.95
2023-03-13T00:34:02.374Z,55.72
2023-03-13T00:36:32.134Z,58.20
2023-03-13T00:39:00.608Z,56.80
2023-03-13T00:41:29.987Z,62.33
2023-03-13T00:43:59.331Z,59.08
2023-03-13T00:46:29.061Z,65.00
2023-03-13T00:48:57.940Z,64.30
2023-03-13T00:51:27.526Z,53.15
2023-03-13T00:53:56.155Z,64.70
2023-03-13T00:56:24.413Z,69.03
2023-03-13T00:58:52.914Z,69.32
2023-03-13T01:01:24.308Z,68.97
2023-03-13T01:03:54.515Z,67.03
2023-03-13T01:06:24.829Z,62.00
2023-03-13T01:08:52.863Z,73.43
2023-03-13T01:11:22.661Z,66.68
2023-03-13T01:13:50.640Z,64.65
2023-03-13T01:16:20.867Z,69.32
2023-03-13T01:18:52.991Z,67.60
2023-03-13T01:21:22.083Z,67.82
2023-03-13T01:23:50.879Z,60.17
2023-03-13T01:26:19.200Z,73.97
2023-03-13T01:28:47.574Z,80.70
2023-03-13T01:31:17.725Z,70.53
2023-03-13T01:33:46.648Z,73.30
2023-03-13T01:36:16.824Z,80.40
2023-03-13T01:38:44.806Z,77.63
2023-03-13T01:41:13.463Z,66.50
2023-03-13T01:43:41.531Z,78.05
2023-03-13T01:46:16.480Z,83.93
2023-03-13T01:48:48.766Z,97.63
2023-03-13T01:51:23.579Z,96.65
2023-03-13T01:53:54.934Z,89.80
2023-03-13T01:56:28.236Z,73.30
2023-03-13T01:58:59.327Z,71.63
2023-03-13T02:01:28.285Z,83.32
2023-03-13T02:03:58.543Z,79.15
2023-03-13T02:06:30.258Z,88.95
2023-03-13T02:09:00.846Z,77.70
2023-03-13T02:11:40.856Z,81.70
2023-03-13T02:14:09.199Z,87.45
2023-03-13T02:16:38.153Z,88.93
2023-03-13T02:19:17.377Z,94.00
2023-03-13T02:21:51.394Z,99.55
2023-03-13T02:24:28.983Z,107.15
2023-03-13T02:26:58.420Z,110.63
2023-03-13T02:29:26.838Z,91.38
2023-03-13T02:31:55.198Z,90.45
2023-03-13T02:34:27.156Z,93.05
2023-03-13T02:36:55.431Z,89.88
2023-03-13T02:39:25.650Z,98.13
2023-03-13T02:41:54.761Z,88.80
2023-03-13T02:44:24.159Z,89.82
2023-03-13T02:46:53.473Z,94.68
2023-03-13T02:49:26.650Z,95.30
2023-03-13T02:51:55.898Z,93.80
2023-03-13T02:54:27.647Z,96.07
2023-03-13T02:56:58.563Z,84.78
2023-03-13T02:59:28.076Z,87.07
2023-03-13T03:01:56.447Z,82.22
2023-03-13T03:04:26.823Z,83.82
2023-03-13T03:06:55.273Z,79.47
2023-03-13T03:09:23.954Z,84.20
2023-03-13T03:11:52.154Z,82.00
2023-03-13T03:14:20.308Z,82.50
2023-03-13T03:16:49.738Z,84.32
2023-03-13T03:19:17.724Z,78.55
2023-03-13T03:21:46.509Z,83.93
2023-03-13T03:24:14.431Z,83.00
2023-03-13T03:26:42.556Z,84.88
2023-03-13T03:29:10.969Z,81.15
2023-03-13T03:31:38.968Z,98.05
2023-03-13T03:34:08.360Z,77.60
2023-03-13T03:36:36.298Z,88.75
2023-03-13T03:39:05.308Z,86.85
2023-03-13T03:41:33.375Z,89.53
2023-03-13T03:44:01.326Z,93.68
2023-03-13T03:46:29.302Z,83.57
2023-03-13T03:48:57.246Z,74.68
2023-03-13T03:51:27.581Z,81.00
2023-03-13T03:53:55.686Z,89.28
2023-03-13T03:56:23.730Z,95.07
2023-03-13T03:58:51.730Z,92.65
2023-03-13T04:01:19.726Z,92.55
2023-03-13T04:03:48.372Z,83.55
2023-03-13T04:06:16.449Z,85.00
2023-03-13T04:08:45.846Z,95.38
2023-03-13T04:11:13.815Z,92.22
2023-03-13T04:13:41.758Z,88.97
2023-03-13T04:16:10.540Z,84.88
2023-03-13T04:18:38.497Z,91.68
2023-03-13T04:21:07.357Z,98.20
2023-03-13T04:23:35.314Z,98.55
2023-03-13T04:26:04.791Z,81.35
2023-03-13T04:28:32.767Z,79.70
2023-03-13T04:31:01.408Z,75.75
2023-03-13T04:33:29.527Z,72.90
2023-03-13T04:35:57.587Z,75.20
2023-03-13T04:38:25.692Z,73.43
2023-03-13T04:40:53.689Z,73.40
2023-03-13T04:43:23.102Z,67.88
2023-03-13T04:45:54.625Z,70.63
2023-03-13T04:48:22.759Z,67.40
2023-03-13T04:50:50.776Z,68.50
2023-03-13T04:53:19.325Z,61.25
2023-03-13T04:55:47.768Z,64.53
2023-03-13T04:58:15.745Z,64.18
2023-03-13T05:00:45.147Z,61.95
2023-03-13T05:03:13.145Z,47.70
2023-03-13T05:05:41.172Z,50.45
2023-03-13T05:08:10.807Z,40.90
2023-03-13T05:10:38.833Z,46.67
2023-03-13T05:13:06.851Z,36.22
2023-03-13T05:15:34.976Z,38.25
2023-03-13T05:18:04.546Z,28.42
2023-03-13T05:20:32.491Z,25.73
2023-03-13T05:23:00.534Z,26.67
2023-03-13T05:25:28.528Z,23.60
2023-03-13T05:27:56.586Z,22.05
2023-03-13T05:30:24.848Z,24.00
2023-03-13T05:32:52.969Z,25.25
2023-03-13T05:35:22.749Z,22.48
2023-03-13T05:37:50.909Z,18.45
2023-03-13T05:40:19.101Z,21.63
2023-03-13T05:42:47.415Z,19.30
2023-03-13T05:45:15.511Z,19.25
2023-03-13T05:47:43.512Z,20.25
2023-03-13T05:50:12.415Z,17.02
2023-03-13T05:52:41.943Z,16.55
2023-03-13T05:55:10.471Z,15.98
2023-03-13T05:57:39.424Z,14.27
2023-03-13T06:00:08.701Z,15.70
2023-03-13T06:02:36.805Z,16.50
2023-03-13T06:05:05.179Z,19.27
2023-03-13T06:07:33.271Z,15.45
2023-03-13T06:10:02.703Z,17.25
2023-03-13T06:12:30.784Z,17.45
2023-03-13T06:14:58.813Z,17.13
2023-03-13T06:17:26.811Z,20.92
2023-03-13T06:19:54.780Z,23.10
2023-03-13T06:22:22.859Z,24.42
2023-03-13T06:24:50.850Z,23.75
2023-03-13T06:27:20.368Z,24.75
2023-03-13T06:29:48.526Z,28.52
2023-03-13T06:32:16.812Z,24.15
2023-03-13T06:34:44.877Z,26.48
2023-03-13T06:37:13.158Z,28.00
2023-03-13T06:39:41.207Z,31.48
2023-03-13T06:42:09.446Z,28.50
2023-03-13T06:44:38.862Z,32.10
2023-03-13T06:47:07.226Z,36.08
2023-03-13T06:49:35.355Z,35.45
2023-03-13T06:52:03.306Z,33.35
2023-03-13T06:54:31.693Z,34.65
2023-03-13T06:56:59.715Z,36.35
2023-03-13T06:59:27.920Z,34.67
2023-03-13T07:01:57.352Z,33.28
2023-03-13T07:04:25.330Z,38.95
2023-03-13T07:06:53.404Z,37.60
2023-03-13T07:09:21.435Z,38.15
2023-03-13T07:11:49.446Z,37.80
2023-03-13T07:14:17.964Z,42.72
2023-03-13T07:16:46.749Z,37.13
2023-03-13T07:19:16.976Z,42.67
2023-03-13T07:21:45.092Z,41.97
2023-03-13T07:24:13.296Z,41.97
2023-03-13T07:26:51.243Z,38.33
2023-03-13T07:29:26.259Z,37.00
2023-03-13T07:31:54.370Z,32.40
2023-03-13T07:34:23.857Z,36.08
2023-03-13T07:36:52.024Z,34.60
2023-03-13T07:39:20.196Z,35.42
2023-03-13T07:41:48.253Z,33.20
2023-03-13T07:44:16.278Z,34.33
2023-03-13T07:46:44.366Z,28.65
2023-03-13T07:49:12.443Z,30.85
2023-03-13T07:51:44.226Z,26.33
2023-03-13T07:54:12.652Z,27.77
2023-03-13T07:56:41.472Z,26.95
2023-03-13T07:59:09.736Z,25.08
2023-03-13T08:01:38.207Z,21.35
2023-03-13T08:04:06.725Z,23.10
2023-03-13T08:06:36.978Z,20.33
2023-03-13T08:09:06.782Z,21.17
2023-03-13T08:11:34.855Z,21.45
2023-03-13T08:14:03.115Z,20.27
2023-03-13T08:16:34.520Z,21.88
2023-03-13T08:19:05.838Z,17.33
2023-03-13T08:21:35.722Z,20.05
2023-03-13T08:24:07.291Z,18.35
2023-03-13T08:26:36.784Z,15.95
2023-03-13T08:29:07.839Z,13.98
2023-03-13T08:31:38.050Z,13.52
2023-03-13T08:34:06.216Z,13.40
2023-03-13T08:36:35.844Z,11.90
2023-03-13T08:39:10.981Z,12.05
2023-03-13T08:41:40.728Z,8.40
2023-03-13T08:44:11.876Z,8.82
2023-03-13T08:46:40.489Z,8.13
2023-03-13T08:49:09.791Z,7.55
2023-03-13T08:51:38.501Z,8.52
2023-03-13T08:54:08.497Z,6.65
2023-03-13T08:56:36.864Z,7.47
2023-03-13T08:59:07.562Z,6.35
2023-03-13T09:01:37.413Z,6.65
2023-03-13T09:04:06.487Z,6.05
2023-03-13T09:06:34.945Z,5.75
2023-03-13T09:09:03.283Z,5.25
2023-03-13T09:11:33.286Z,5.95
2023-03-13T09:14:01.342Z,5.00
2023-03-13T09:16:31.845Z,5.22
2023-03-13T09:19:00.864Z,5.70
2023-03-13T09:21:30.626Z,6.03
2023-03-13T09:23:59.002Z,5.60
2023-03-13T09:26:27.813Z,6.05
2023-03-13T09:28:57.913Z,4.60
2023-03-13T09:31:27.730Z,4.70
2023-03-13T09:33:56.369Z,5.47
2023-03-13T09:36:25.002Z,4.93
2023-03-13T09:38:54.456Z,4.03
2023-03-13T09:41:26.866Z,4.10
2023-03-13T09:44:01.558Z,3.85
2023-03-13T09:46:35.111Z,3.90
2023-03-13T09:49:06.860Z,4.07
2023-03-13T09:51:37.316Z,3.88
2023-03-13T09:54:09.328Z,3.15
2023-03-13T09:56:43.452Z,3.40
2023-03-13T09:59:19.745Z,3.15
2023-03-13T10:01:50.352Z,3.10
2023-03-13T10:04:30.760Z,4.10
2023-03-13T10:06:58.970Z,2.72
2023-03-13T10:09:30.954Z,3.85
2023-03-13T10:12:12.023Z,3.58
2023-03-13T10:14:45.040Z,3.00
2023-03-13T10:17:27.396Z,2.92
2023-03-13T10:20:01.213Z,3.15
2023-03-13T10:22:32.397Z,2.20
2023-03-13T10:25:04.421Z,2.83
2023-03-13T10:27:32.420Z,3.20
2023-03-13T10:30:01.833Z,3.42
2023-03-13T10:32:29.980Z,3.38
2023-03-13T10:35:00.435Z,3.28
2023-03-13T10:37:30.191Z,3.45
2023-03-13T10:40:15.492Z,3.70
2023-03-13T10:42:46.483Z,3.10
2023-03-13T10:45:19.674Z,3.60
2023-03-13T10:47:54.749Z,3.47
2023-03-13T10:50:25.730Z,2.95
2023-03-13T10:52:55.128Z,3.75
2023-03-13T10:55:25.164Z,3.50
2023-03-13T10:58:00.428Z,3.30
2023-03-13T11:00:38.794Z,3.20
2023-03-13T11:03:14.833Z,3.60
2023-03-13T11:05:44.467Z,3.33
2023-03-13T11:08:19.951Z,3.40
2023-03-13T11:11:02.300Z,3.08
2023-03-13T11:13:37.779Z,3.55
2023-03-13T11:16:19.334Z,4.10
2023-03-13T11:19:10.207Z,3.58
2023-03-13T11:21:45.693Z,4.13
2023-03-13T11:24:20.709Z,4.65
2023-03-13T11:27:04.596Z,3.88
2023-03-13T11:29:43.386Z,4.10
2023-03-13T11:32:24.105Z,3.60
2023-03-13T11:34:56.346Z,3.97
2023-03-13T11:40:00.911Z,4.50
2023-03-13T11:42:45.881Z,4.78
2023-03-13T11:45:24.825Z,4.20
2023-03-13T11:47:59.570Z,4.50
2023-03-13T11:50:48.321Z,4.53
2023-03-13T11:53:30.392Z,4.78
2023-03-13T11:56:07.732Z,5.00
2023-03-13T11:58:49.786Z,4.57
2023-03-13T12:01:19.682Z,4.60
2023-03-13T12:03:59.726Z,4.28
2023-03-13T12:06:32.977Z,5.30
2023-03-13T12:09:07.810Z,5.85
2023-03-13T12:11:43.881Z,5.05
2023-03-13T12:14:16.189Z,4.88
2023-03-13T12:19:18.979Z,4.95
2023-03-13T12:21:53.385Z,5.20
2023-03-13T12:24:27.873Z,5.43
2023-03-13T12:27:00.350Z,5.32
2023-03-13T12:29:46.468Z,5.40
2023-03-13T12:32:19.865Z,5.13
2023-03-13T12:35:01.916Z,5.57
2023-03-13T12:37:40.469Z,5.90
2023-03-13T12:40:17.308Z,5.25
2023-03-13T12:42:52.375Z,4.82
2023-03-13T12:45:24.078Z,4.63
2023-03-13T12:48:15.325Z,5.25
2023-03-13T12:50:59.977Z,4.95
2023-03-13T12:54:21.831Z,4.57
2023-03-13T12:57:06.130Z,5.43
2023-03-13T12:59:38.135Z,4.95
2023-03-13T13:02:16.338Z,4.82
2023-03-13T13:04:47.519Z,5.50
2023-03-13T13:07:27.585Z,4.97
2023-03-13T13:10:18.558Z,4.80
2023-03-13T13:12:48.377Z,5.38
2023-03-13T13:15:21.077Z,5.20
2023-03-13T13:18:06.863Z,5.25
2023-03-13T13:20:49.914Z,5.50
2023-03-13T13:23:34.962Z,6.10
2023-03-13T13:26:48.993Z,5.25
2023-03-13T13:29:56.633Z,5.55
2023-03-13T13:32:42.876Z,5.30
2023-03-13T13:35:27.494Z,5.47
2023-03-13T13:38:40.415Z,6.18
2023-03-13T13:41:38.217Z,5.65
2023-03-13T13:44:27.872Z,5.63
2023-03-13T13:46:58.634Z,5.63
2023-03-13T13:49:56.400Z,6.00
2023-03-13T13:52:39.989Z,5.47
2023-03-13T13:55:43.196Z,5.30
2023-03-13T13:58:19.197Z,5.20
2023-03-13T14:00:53.157Z,5.53
2023-03-13T14:03:24.100Z,5.40
2023-03-13T14:05:55.755Z,5.20
2023-03-13T14:08:29.792Z,4.68
2023-03-13T14:11:11.028Z,5.30
2023-03-13T14:13:40.933Z,5.43
2023-03-13T14:16:24.547Z,5.28
2023-03-13T14:18:54.003Z,5.07
2023-03-13T14:21:24.188Z,4.85
2023-03-13T14:23:52.825Z,5.65
2023-03-13T14:26:23.246Z,5.72
2023-03-13T14:28:56.011Z,5.35
2023-03-13T14:31:27.630Z,5.20
2023-03-13T14:33:57.343Z,5.15
2023-03-13T14:36:25.726Z,4.60
2023-03-13T14:38:55.960Z,6.03
2023-03-13T14:41:31.396Z,4.78
2023-03-13T14:44:14.875Z,4.80
2023-03-13T14:46:44.900Z,5.25
2023-03-13T14:49:19.258Z,5.07
2023-03-13T14:51:50.560Z,5.25
2023-03-13T14:54:30.930Z,4.85
2023-03-13T14:57:17.014Z,4.95
2023-03-13T14:59:46.522Z,5.50
2023-03-13T15:02:23.308Z,5.70
2023-03-13T15:05:01.811Z,5.47
2023-03-13T15:07:38.402Z,5.40
2023-03-13T15:10:20.939Z,5.50
2023-03-13T15:12:49.878Z,5.38
2023-03-13T15:15:20.012Z,5.50
2023-03-13T15:17:48.379Z,5.55
2023-03-13T15:20:17.530Z,4.70
2023-03-13T15:22:47.215Z,5.93
2023-03-13T15:25:17.875Z,5.15
2023-03-13T15:27:45.900Z,5.60
2023-03-13T15:30:16.805Z,5.57
2023-03-13T15:32:47.003Z,5.40
2023-03-13T15:35:25.225Z,5.10
2023-03-13T15:37:53.464Z,5.63
2023-03-13T15:40:21.850Z,5.22
2023-03-13T15:42:49.819Z,5.43
2023-03-13T15:45:18.007Z,5.25
2023-03-13T15:47:48.014Z,5.43
2023-03-13T15:50:19.495Z,5.15
2023-03-13T15:52:47.760Z,5.05
2023-03-13T15:55:16.297Z,5.88
2023-03-13T15:57:47.337Z,5.45
2023-03-13T16:00:20.781Z,5.13
2023-03-13T16:02:50.556Z,4.95
2023-03-13T16:05:19.792Z,5.05
2023-03-13T16:07:48.032Z,5.68
2023-03-13T16:10:19.353Z,5.85
2023-03-13T16:12:47.623Z,5.90
2023-03-13T16:15:15.745Z,5.93
2023-03-13T16:17:44.002Z,5.95
2023-03-13T16:20:18.244Z,6.03
2023-03-13T16:22:46.537Z,6.10
2023-03-13T16:25:15.924Z,5.80
2023-03-13T16:27:44.242Z,5.88
2023-03-13T16:30:18.875Z,6.78
2023-03-13T16:32:47.524Z,6.80
2023-03-13T16:35:17.810Z,5.43
2023-03-13T16:37:45.974Z,6.57
2023-03-13T16:40:19.692Z,5.93
2023-03-13T16:42:47.992Z,6.53
2023-03-13T16:45:16.623Z,7.15
2023-03-13T16:47:45.997Z,6.28
2023-03-13T16:50:34.928Z,6.72
2023-03-13T16:53:03.281Z,6.30
2023-03-13T16:55:36.733Z,7.43
2023-03-13T16:58:06.118Z,6.35
2023-03-13T17:00:35.009Z,7.03
2023-03-13T17:03:03.233Z,6.68
2023-03-13T17:05:33.062Z,6.38
2023-03-13T17:08:01.112Z,6.80
2023-03-13T17:10:31.122Z,7.53
2023-03-13T17:12:59.116Z,5.93
2023-03-13T17:15:28.070Z,6.57
2023-03-13T17:17:56.568Z,6.57
2023-03-13T17:20:27.487Z,6.82
2023-03-13T17:22:57.320Z,7.50
2023-03-13T17:25:25.930Z,7.25
2023-03-13T17:27:55.558Z,7.45
2023-03-13T17:30:26.464Z,6.30
2023-03-13T17:32:54.783Z,6.78
2023-03-13T17:35:23.185Z,6.07
2023-03-13T17:37:51.697Z,6.28
2023-03-13T17:40:22.831Z,6.68
2023-03-13T17:42:51.348Z,6.63
2023-03-13T17:45:39.878Z,7.13
2023-03-13T17:48:14.136Z,6.78
2023-03-13T17:50:42.264Z,6.63
2023-03-13T17:53:10.316Z,6.80
2023-03-13T17:55:39.664Z,6.90
2023-03-13T17:58:07.677Z,6.88
2023-03-13T18:00:35.785Z,6.57
2023-03-13T18:03:03.890Z,7.10
2023-03-13T18:05:31.974Z,6.85
2023-03-13T18:08:00.059Z,6.80
2023-03-13T18:10:30.176Z,6.57
2023-03-13T18:12:59.688Z,7.13
2023-03-13T18:15:28.275Z,6.97
2023-03-13T18:17:58.705Z,7.03
2023-03-13T18:20:29.110Z,7.20
2023-03-13T18:23:00.304Z,6.88
2023-03-13T18:25:29.019Z,6.63
2023-03-13T18:27:57.315Z,7.68
2023-03-13T18:30:27.584Z,6.72
2023-03-13T18:32:55.853Z,6.78
2023-03-13T18:35:23.929Z,6.95
2023-03-13T18:37:51.907Z,6.72
2023-03-13T18:40:22.391Z,6.88
2023-03-13T18:42:50.772Z,7.10
2023-03-13T18:45:21.249Z,7.35
2023-03-13T18:47:50.695Z,7.22
2023-03-13T18:50:26.194Z,7.78
2023-03-13T18:52:55.324Z,8.20
2023-03-13T18:55:23.801Z,7.55
2023-03-13T18:57:51.955Z,8.52
2023-03-13T19:00:21.740Z,6.97
2023-03-13T19:02:51.340Z,7.10
2023-03-13T19:05:20.161Z,7.22
2023-03-13T19:07:48.660Z,7.70
2023-03-13T19:10:20.528Z,7.40
2023-03-13T19:12:49.039Z,7.40
2023-03-13T19:15:17.389Z,7.53
2023-03-13T19:17:45.776Z,7.47
2023-03-13T19:20:18.692Z,7.43
2023-03-13T19:22:47.094Z,6.45
2023-03-13T19:25:17.074Z,7.28
2023-03-13T19:27:45.438Z,7.97
2023-03-13T19:30:18.084Z,7.75
2023-03-13T19:32:46.118Z,6.78
2023-03-13T19:35:18.723Z,8.10
2023-03-13T19:37:46.811Z,7.45
2023-03-13T19:40:20.134Z,6.72
2023-03-13T19:42:48.185Z,6.63
2023-03-13T19:45:19.622Z,7.70
2023-03-13T19:47:47.693Z,7.00
2023-03-13T19:50:22.129Z,7.00
2023-03-13T19:52:50.186Z,7.35
2023-03-13T19:55:18.300Z,6.65
2023-03-13T19:57:46.373Z,6.95
2023-03-13T20:00:21.177Z,6.47
2023-03-13T20:02:49.310Z,6.88
2023-03-13T20:05:17.467Z,7.32
2023-03-13T20:07:48.183Z,7.97
2023-03-13T20:10:16.282Z,6.88
2023-03-13T20:12:44.233Z,7.22
2023-03-13T20:15:12.799Z,6.70
2023-03-13T20:17:40.751Z,6.72
2023-03-13T20:20:10.915Z,6.70
2023-03-13T20:22:38.848Z,6.90
2023-03-13T20:25:09.275Z,7.57
2023-03-13T20:27:37.309Z,6.88
2023-03-13T20:30:06.192Z,7.47
2023-03-13T20:32:34.199Z,6.40
2023-03-13T20:35:02.282Z,6.95
2023-03-13T20:37:30.337Z,6.28
2023-03-13T20:39:58.352Z,6.38
2023-03-13T20:42:28.169Z,6.43
2023-03-13T20:44:56.319Z,7.28
2023-03-13T20:47:24.309Z,6.55
2023-03-13T20:49:52.257Z,6.72
2023-03-13T20:52:20.292Z,6.95
2023-03-13T20:54:48.242Z,7.05
2023-03-13T20:57:19.473Z,6.00
2023-03-13T20:59:48.874Z,7.30
2023-03-13T21:02:16.941Z,6.43
2023-03-13T21:04:45.242Z,6.57
2023-03-13T21:07:13.248Z,6.82
2023-03-13T21:09:41.224Z,6.70
2023-03-13T21:12:10.354Z,7.10
2023-03-13T21:14:38.295Z,6.43
2023-03-13T21:17:11.160Z,7.93
2023-03-13T21:19:39.091Z,6.32
2023-03-13T21:22:08.201Z,7.03
2023-03-13T21:24:36.186Z,6.85
2023-03-13T21:27:04.276Z,7.47
2023-03-13T21:29:32.378Z,7.63
2023-03-13T21:32:00.317Z,7.28
2023-03-13T21:34:29.689Z,7.40
2023-03-13T21:36:57.734Z,8.90
2023-03-13T21:39:25.732Z,9.25
2023-03-13T21:41:58.447Z,9.75
2023-03-13T21:44:27.409Z,9.63
2023-03-13T21:46:55.518Z,8.52
2023-03-13T21:49:23.619Z,7.97
2023-03-13T21:51:52.978Z,7.72
2023-03-13T21:54:21.074Z,7.55
2023-03-13T21:56:49.044Z,6.28
2023-03-13T21:59:17.080Z,7.80
2023-03-13T22:01:45.251Z,7.95
2023-03-13T22:04:13.254Z,6.95
2023-03-13T22:06:41.388Z,7.28
2023-03-13T22:09:10.702Z,6.55
2023-03-13T22:11:38.697Z,6.80
2023-03-13T22:14:06.699Z,7.15
2023-03-13T22:16:34.725Z,6.80
2023-03-13T22:19:02.691Z,7.60
2023-03-13T22:21:30.702Z,7.07
2023-03-13T22:23:58.708Z,6.65
2023-03-13T22:26:28.099Z,6.10
2023-03-13T22:28:56.148Z,6.65
2023-03-13T22:31:24.107Z,6.28
2023-03-13T22:33:52.282Z,6.53
2023-03-13T22:36:20.430Z,6.43
2023-03-13T22:38:48.435Z,7.95
2023-03-13T22:41:18.153Z,6.43
2023-03-13T22:43:47.524Z,6.05
2023-03-13T22:46:15.959Z,5.72
2023-03-13T22:48:44.031Z,6.43
2023-03-13T22:51:13.835Z,6.10
2023-03-13T22:53:43.263Z,5.35
2023-03-13T22:56:13.053Z,6.53
2023-03-13T22:58:42.232Z,4.57
2023-03-13T23:01:13.993Z,5.40
2023-03-13T23:03:42.149Z,5.25
2023-03-13T23:06:15.853Z,5.28
2023-03-13T23:08:44.077Z,4.63
2023-03-13T23:11:12.706Z,4.90
2023-03-13T23:13:40.790Z,4.93
2023-03-13T23:16:12.701Z,4.35
2023-03-13T23:18:41.857Z,4.63
2023-03-13T23:21:11.820Z,3.65
2023-03-13T23:23:40.535Z,4.00
2023-03-13T23:26:10.577Z,4.47
2023-03-13T23:28:39.697Z,4.32
2023-03-13T23:31:14.128Z,4.53
2023-03-13T23:33:42.489Z,4.55
2023-03-13T23:36:15.335Z,4.25
2023-03-13T23:38:43.842Z,3.92
2023-03-13T23:41:13.980Z,4.50
2023-03-13T23:43:42.665Z,3.92
2023-03-13T23:46:17.896Z,4.25
2023-03-13T23:48:46.145Z,3.72
2023-03-13T23:51:14.560Z,4.40
2023-03-13T23:53:44.287Z,4.00
2023-03-13T23:56:12.922Z,4.75
2023-03-13T23:58:40.921Z,4.05
